sensor_id;sensor_type;location;lat;lon;timestamp;P1;durP1;ratioP1;P2;durP2;ratioP2
793;SDS011;380;48.738;9.214;2022-09-09T00:01:03;3.08;;;1.38;;
793;SDS011;380;48.738;9.214;2022-09-09T00:03:33;2.75;;;0.80;;
793;SDS011;380;48.738;9.214;2022-09-09T00:06:04;5.53;;;1.35;;
793;SDS011;380;48.738;9.214;2022-09-09T00:11:22;2.47;;;0.70;;
793;SDS011;380;48.738;9.214;2022-09-09T00:13:52;2.85;;;1.38;;
793;SDS011;380;48.738;9.214;2022-09-09T00:18:56;2.58;;;1.40;;
793;SDS011;380;48.738;9.214;2022-09-09T00:21:25;4.88;;;1.55;;
793;SDS011;380;48.738;9.214;2022-09-09T00:23:54;3.47;;;1.15;;
793;SDS011;380;48.738;9.214;2022-09-09T00:31:26;4.72;;;1.20;;
793;SDS011;380;48.738;9.214;2022-09-09T00:33:53;2.75;;;0.98;;
793;SDS011;380;48.738;9.214;2022-09-09T00:36:21;4.00;;;1.27;;
793;SDS011;380;48.738;9.214;2022-09-09T00:38:51;3.30;;;1.42;;
793;SDS011;380;48.738;9.214;2022-09-09T00:41:22;3.92;;;1.70;;
793;SDS011;380;48.738;9.214;2022-09-09T00:44:00;2.72;;;1.33;;
793;SDS011;380;48.738;9.214;2022-09-09T00:49:05;2.90;;;1.00;;
793;SDS011;380;48.738;9.214;2022-09-09T00:54:34;2.95;;;1.30;;
793;SDS011;380;48.738;9.214;2022-09-09T01:02:02;2.10;;;1.02;;
793;SDS011;380;48.738;9.214;2022-09-09T01:04:33;2.17;;;1.13;;
793;SDS011;380;48.738;9.214;2022-09-09T01:07:03;1.42;;;0.60;;
793;SDS011;380;48.738;9.214;2022-09-09T01:12:13;2.45;;;1.42;;
793;SDS011;380;48.738;9.214;2022-09-09T01:14:45;4.72;;;1.23;;
793;SDS011;380;48.738;9.214;2022-09-09T01:17:30;1.02;;;0.52;;
793;SDS011;380;48.738;9.214;2022-09-09T01:27:38;3.17;;;0.97;;
793;SDS011;380;48.738;9.214;2022-09-09T01:30:09;3.45;;;1.15;;
793;SDS011;380;48.738;9.214;2022-09-09T01:32:46;2.33;;;0.90;;
793;SDS011;380;48.738;9.214;2022-09-09T01:35:15;3.03;;;1.00;;
793;SDS011;380;48.738;9.214;2022-09-09T01:37:45;5.18;;;1.00;;
793;SDS011;380;48.738;9.214;2022-09-09T01:40:11;1.58;;;0.77;;
793;SDS011;380;48.738;9.214;2022-09-09T01:42:37;4.75;;;0.60;;
793;SDS011;380;48.738;9.214;2022-09-09T01:45:03;1.33;;;0.60;;
793;SDS011;380;48.738;9.214;2022-09-09T01:47:29;10.45;;;1.63;;
793;SDS011;380;48.738;9.214;2022-09-09T01:49:55;1.85;;;0.57;;
793;SDS011;380;48.738;9.214;2022-09-09T01:52:21;2.40;;;1.05;;
793;SDS011;380;48.738;9.214;2022-09-09T01:54:48;3.25;;;1.15;;
793;SDS011;380;48.738;9.214;2022-09-09T01:57:15;2.88;;;0.90;;
793;SDS011;380;48.738;9.214;2022-09-09T02:02:19;1.30;;;0.70;;
793;SDS011;380;48.738;9.214;2022-09-09T02:04:48;3.33;;;0.90;;
793;SDS011;380;48.738;9.214;2022-09-09T02:07:19;3.00;;;0.77;;
793;SDS011;380;48.738;9.214;2022-09-09T02:09:47;2.53;;;1.17;;
793;SDS011;380;48.738;9.214;2022-09-09T02:12:16;1.73;;;0.77;;
793;SDS011;380;48.738;9.214;2022-09-09T02:14:49;1.63;;;0.65;;
793;SDS011;380;48.738;9.214;2022-09-09T02:17:19;2.03;;;0.95;;
793;SDS011;380;48.738;9.214;2022-09-09T02:19:49;2.08;;;0.77;;
793;SDS011;380;48.738;9.214;2022-09-09T02:22:19;1.38;;;0.75;;
793;SDS011;380;48.738;9.214;2022-09-09T02:24:45;2.20;;;1.33;;
793;SDS011;380;48.738;9.214;2022-09-09T02:27:12;1.40;;;0.80;;
793;SDS011;380;48.738;9.214;2022-09-09T02:29:40;2.72;;;1.35;;
793;SDS011;380;48.738;9.214;2022-09-09T02:32:07;1.83;;;0.93;;
793;SDS011;380;48.738;9.214;2022-09-09T02:34:35;1.67;;;0.90;;
793;SDS011;380;48.738;9.214;2022-09-09T02:37:02;2.47;;;0.82;;
793;SDS011;380;48.738;9.214;2022-09-09T02:39:29;2.28;;;1.05;;
793;SDS011;380;48.738;9.214;2022-09-09T02:41:55;1.58;;;0.73;;
793;SDS011;380;48.738;9.214;2022-09-09T02:44:21;3.35;;;1.08;;
793;SDS011;380;48.738;9.214;2022-09-09T02:46:55;1.83;;;0.73;;
793;SDS011;380;48.738;9.214;2022-09-09T02:52:00;1.52;;;0.77;;
793;SDS011;380;48.738;9.214;2022-09-09T02:54:30;2.15;;;0.93;;
793;SDS011;380;48.738;9.214;2022-09-09T02:57:01;1.17;;;0.80;;
793;SDS011;380;48.738;9.214;2022-09-09T02:59:29;2.40;;;0.70;;
793;SDS011;380;48.738;9.214;2022-09-09T03:01:56;2.25;;;0.80;;
793;SDS011;380;48.738;9.214;2022-09-09T03:04:22;1.70;;;0.75;;
793;SDS011;380;48.738;9.214;2022-09-09T03:06:49;0.98;;;0.52;;
793;SDS011;380;48.738;9.214;2022-09-09T03:09:15;3.17;;;1.25;;
793;SDS011;380;48.738;9.214;2022-09-09T03:11:42;2.38;;;0.75;;
793;SDS011;380;48.738;9.214;2022-09-09T03:14:08;1.15;;;0.77;;
793;SDS011;380;48.738;9.214;2022-09-09T03:16:36;1.27;;;0.63;;
793;SDS011;380;48.738;9.214;2022-09-09T03:19:02;5.97;;;1.15;;
793;SDS011;380;48.738;9.214;2022-09-09T03:21:28;1.63;;;0.68;;
793;SDS011;380;48.738;9.214;2022-09-09T03:23:54;1.58;;;0.43;;
793;SDS011;380;48.738;9.214;2022-09-09T03:26:20;6.00;;;0.93;;
793;SDS011;380;48.738;9.214;2022-09-09T03:28:47;4.68;;;1.40;;
793;SDS011;380;48.738;9.214;2022-09-09T03:31:16;1.40;;;0.70;;
793;SDS011;380;48.738;9.214;2022-09-09T03:33:43;1.65;;;0.70;;
793;SDS011;380;48.738;9.214;2022-09-09T03:36:09;2.00;;;0.57;;
793;SDS011;380;48.738;9.214;2022-09-09T03:38:35;4.03;;;1.10;;
793;SDS011;380;48.738;9.214;2022-09-09T03:41:01;3.75;;;1.08;;
793;SDS011;380;48.738;9.214;2022-09-09T03:43:28;1.63;;;0.80;;
793;SDS011;380;48.738;9.214;2022-09-09T03:45:55;2.60;;;1.02;;
793;SDS011;380;48.738;9.214;2022-09-09T03:48:22;4.85;;;0.57;;
793;SDS011;380;48.738;9.214;2022-09-09T03:50:48;3.00;;;0.88;;
793;SDS011;380;48.738;9.214;2022-09-09T03:53:15;2.22;;;0.88;;
793;SDS011;380;48.738;9.214;2022-09-09T03:55:46;1.77;;;0.77;;
793;SDS011;380;48.738;9.214;2022-09-09T03:58:13;3.20;;;0.90;;
793;SDS011;380;48.738;9.214;2022-09-09T04:00:39;4.72;;;0.82;;
793;SDS011;380;48.738;9.214;2022-09-09T04:03:07;2.15;;;0.90;;
793;SDS011;380;48.738;9.214;2022-09-09T04:05:33;3.42;;;0.93;;
793;SDS011;380;48.738;9.214;2022-09-09T04:07:59;2.83;;;0.93;;
793;SDS011;380;48.738;9.214;2022-09-09T04:10:25;4.13;;;1.25;;
793;SDS011;380;48.738;9.214;2022-09-09T04:12:51;2.55;;;0.90;;
793;SDS011;380;48.738;9.214;2022-09-09T04:15:17;3.00;;;0.93;;
793;SDS011;380;48.738;9.214;2022-09-09T04:17:44;1.05;;;0.52;;
793;SDS011;380;48.738;9.214;2022-09-09T04:20:10;2.47;;;0.95;;
793;SDS011;380;48.738;9.214;2022-09-09T04:22:37;2.53;;;1.17;;
793;SDS011;380;48.738;9.214;2022-09-09T04:25:04;1.88;;;0.90;;
793;SDS011;380;48.738;9.214;2022-09-09T04:27:30;2.88;;;1.10;;
793;SDS011;380;48.738;9.214;2022-09-09T04:29:56;4.50;;;1.38;;
793;SDS011;380;48.738;9.214;2022-09-09T04:32:23;3.97;;;1.38;;
793;SDS011;380;48.738;9.214;2022-09-09T04:34:52;2.08;;;0.95;;
793;SDS011;380;48.738;9.214;2022-09-09T04:37:18;1.67;;;1.00;;
793;SDS011;380;48.738;9.214;2022-09-09T04:39:44;2.33;;;0.93;;
793;SDS011;380;48.738;9.214;2022-09-09T04:42:10;2.88;;;0.77;;
793;SDS011;380;48.738;9.214;2022-09-09T04:44:36;1.85;;;0.82;;
793;SDS011;380;48.738;9.214;2022-09-09T04:47:02;1.95;;;0.90;;
793;SDS011;380;48.738;9.214;2022-09-09T04:49:28;1.35;;;0.75;;
793;SDS011;380;48.738;9.214;2022-09-09T04:51:55;3.90;;;1.30;;
793;SDS011;380;48.738;9.214;2022-09-09T04:54:21;3.70;;;1.17;;
793;SDS011;380;48.738;9.214;2022-09-09T04:56:49;2.38;;;1.08;;
793;SDS011;380;48.738;9.214;2022-09-09T04:59:15;2.20;;;1.15;;
793;SDS011;380;48.738;9.214;2022-09-09T05:01:41;3.70;;;1.00;;
793;SDS011;380;48.738;9.214;2022-09-09T05:04:07;5.82;;;1.67;;
793;SDS011;380;48.738;9.214;2022-09-09T05:06:34;1.42;;;0.82;;
793;SDS011;380;48.738;9.214;2022-09-09T05:09:01;1.65;;;0.82;;
793;SDS011;380;48.738;9.214;2022-09-09T05:11:28;2.50;;;0.90;;
793;SDS011;380;48.738;9.214;2022-09-09T05:13:54;3.35;;;1.45;;
793;SDS011;380;48.738;9.214;2022-09-09T05:16:21;2.58;;;0.98;;
793;SDS011;380;48.738;9.214;2022-09-09T05:18:48;1.30;;;0.60;;
793;SDS011;380;48.738;9.214;2022-09-09T05:21:15;1.95;;;0.75;;
793;SDS011;380;48.738;9.214;2022-09-09T05:23:41;1.58;;;0.90;;
793;SDS011;380;48.738;9.214;2022-09-09T05:26:09;2.35;;;0.93;;
793;SDS011;380;48.738;9.214;2022-09-09T05:28:37;1.23;;;0.85;;
793;SDS011;380;48.738;9.214;2022-09-09T05:31:07;2.83;;;1.17;;
793;SDS011;380;48.738;9.214;2022-09-09T05:33:33;2.08;;;0.85;;
793;SDS011;380;48.738;9.214;2022-09-09T05:36:00;1.55;;;0.85;;
793;SDS011;380;48.738;9.214;2022-09-09T05:38:27;4.30;;;1.52;;
793;SDS011;380;48.738;9.214;2022-09-09T05:40:54;2.42;;;0.93;;
793;SDS011;380;48.738;9.214;2022-09-09T05:43:21;4.43;;;1.48;;
793;SDS011;380;48.738;9.214;2022-09-09T05:45:47;1.38;;;0.77;;
793;SDS011;380;48.738;9.214;2022-09-09T05:48:16;3.20;;;1.00;;
793;SDS011;380;48.738;9.214;2022-09-09T05:50:42;1.45;;;0.82;;
793;SDS011;380;48.738;9.214;2022-09-09T05:53:10;1.83;;;0.82;;
793;SDS011;380;48.738;9.214;2022-09-09T05:55:36;2.35;;;0.90;;
793;SDS011;380;48.738;9.214;2022-09-09T05:58:02;2.17;;;1.17;;
793;SDS011;380;48.738;9.214;2022-09-09T06:00:29;3.88;;;1.35;;
793;SDS011;380;48.738;9.214;2022-09-09T06:02:56;1.73;;;0.85;;
793;SDS011;380;48.738;9.214;2022-09-09T06:05:22;2.35;;;0.98;;
793;SDS011;380;48.738;9.214;2022-09-09T06:07:52;2.05;;;0.77;;
793;SDS011;380;48.738;9.214;2022-09-09T06:10:18;2.97;;;0.95;;
793;SDS011;380;48.738;9.214;2022-09-09T06:12:44;4.13;;;1.20;;
793;SDS011;380;48.738;9.214;2022-09-09T06:15:10;3.40;;;1.13;;
793;SDS011;380;48.738;9.214;2022-09-09T06:17:36;2.33;;;1.08;;
793;SDS011;380;48.738;9.214;2022-09-09T06:20:02;7.60;;;1.13;;
793;SDS011;380;48.738;9.214;2022-09-09T06:22:29;2.38;;;0.93;;
793;SDS011;380;48.738;9.214;2022-09-09T06:24:55;1.80;;;0.93;;
793;SDS011;380;48.738;9.214;2022-09-09T06:27:21;1.60;;;0.73;;
793;SDS011;380;48.738;9.214;2022-09-09T06:29:47;1.42;;;0.82;;
793;SDS011;380;48.738;9.214;2022-09-09T06:32:13;2.63;;;0.70;;
793;SDS011;380;48.738;9.214;2022-09-09T06:34:39;0.98;;;0.57;;
793;SDS011;380;48.738;9.214;2022-09-09T06:37:05;2.85;;;0.95;;
793;SDS011;380;48.738;9.214;2022-09-09T06:39:31;3.13;;;1.27;;
793;SDS011;380;48.738;9.214;2022-09-09T06:41:57;1.73;;;0.90;;
793;SDS011;380;48.738;9.214;2022-09-09T06:44:23;2.28;;;1.08;;
793;SDS011;380;48.738;9.214;2022-09-09T06:46:51;2.10;;;0.95;;
793;SDS011;380;48.738;9.214;2022-09-09T06:49:17;4.25;;;1.58;;
793;SDS011;380;48.738;9.214;2022-09-09T06:51:43;3.63;;;1.15;;
793;SDS011;380;48.738;9.214;2022-09-09T06:54:10;1.48;;;0.80;;
793;SDS011;380;48.738;9.214;2022-09-09T06:56:37;3.08;;;1.02;;
793;SDS011;380;48.738;9.214;2022-09-09T06:59:05;3.45;;;1.13;;
793;SDS011;380;48.738;9.214;2022-09-09T07:01:34;4.28;;;1.20;;
793;SDS011;380;48.738;9.214;2022-09-09T07:04:00;2.67;;;1.38;;
793;SDS011;380;48.738;9.214;2022-09-09T07:06:30;2.28;;;1.05;;
793;SDS011;380;48.738;9.214;2022-09-09T07:08:57;2.35;;;0.93;;
793;SDS011;380;48.738;9.214;2022-09-09T07:11:25;3.80;;;0.65;;
793;SDS011;380;48.738;9.214;2022-09-09T07:13:52;3.92;;;1.13;;
793;SDS011;380;48.738;9.214;2022-09-09T07:16:18;3.00;;;1.25;;
793;SDS011;380;48.738;9.214;2022-09-09T07:18:45;5.55;;;1.45;;
793;SDS011;380;48.738;9.214;2022-09-09T07:21:11;2.30;;;1.48;;
793;SDS011;380;48.738;9.214;2022-09-09T07:23:38;2.47;;;1.00;;
793;SDS011;380;48.738;9.214;2022-09-09T07:26:14;3.40;;;1.33;;
793;SDS011;380;48.738;9.214;2022-09-09T07:28:40;4.90;;;1.35;;
793;SDS011;380;48.738;9.214;2022-09-09T07:31:08;5.13;;;1.25;;
793;SDS011;380;48.738;9.214;2022-09-09T07:33:38;2.17;;;0.85;;
793;SDS011;380;48.738;9.214;2022-09-09T07:38:32;4.13;;;1.13;;
793;SDS011;380;48.738;9.214;2022-09-09T07:41:05;4.22;;;0.70;;
793;SDS011;380;48.738;9.214;2022-09-09T07:43:31;1.75;;;1.15;;
793;SDS011;380;48.738;9.214;2022-09-09T07:45:58;2.88;;;1.08;;
793;SDS011;380;48.738;9.214;2022-09-09T07:48:26;2.10;;;0.88;;
793;SDS011;380;48.738;9.214;2022-09-09T07:50:52;3.25;;;1.13;;
793;SDS011;380;48.738;9.214;2022-09-09T07:53:18;1.23;;;0.65;;
793;SDS011;380;48.738;9.214;2022-09-09T07:55:44;3.65;;;1.67;;
793;SDS011;380;48.738;9.214;2022-09-09T07:58:11;2.33;;;0.98;;
793;SDS011;380;48.738;9.214;2022-09-09T08:00:37;2.30;;;0.85;;
793;SDS011;380;48.738;9.214;2022-09-09T08:03:03;1.90;;;0.98;;
793;SDS011;380;48.738;9.214;2022-09-09T08:05:29;3.60;;;0.93;;
793;SDS011;380;48.738;9.214;2022-09-09T08:07:55;3.15;;;1.40;;
793;SDS011;380;48.738;9.214;2022-09-09T08:10:21;3.60;;;1.35;;
793;SDS011;380;48.738;9.214;2022-09-09T08:12:47;1.48;;;0.68;;
793;SDS011;380;48.738;9.214;2022-09-09T08:15:13;1.35;;;0.52;;
793;SDS011;380;48.738;9.214;2022-09-09T08:17:39;3.78;;;1.20;;
793;SDS011;380;48.738;9.214;2022-09-09T08:20:05;3.63;;;1.05;;
793;SDS011;380;48.738;9.214;2022-09-09T08:22:32;1.85;;;0.77;;
793;SDS011;380;48.738;9.214;2022-09-09T08:24:59;1.50;;;0.63;;
793;SDS011;380;48.738;9.214;2022-09-09T08:27:25;2.58;;;1.00;;
793;SDS011;380;48.738;9.214;2022-09-09T08:29:51;3.05;;;0.90;;
793;SDS011;380;48.738;9.214;2022-09-09T08:32:18;2.13;;;0.80;;
793;SDS011;380;48.738;9.214;2022-09-09T08:34:44;1.40;;;0.60;;
793;SDS011;380;48.738;9.214;2022-09-09T08:37:10;2.03;;;0.85;;
793;SDS011;380;48.738;9.214;2022-09-09T08:39:36;1.67;;;0.88;;
793;SDS011;380;48.738;9.214;2022-09-09T08:42:08;3.22;;;1.15;;
793;SDS011;380;48.738;9.214;2022-09-09T08:55:38;1.17;;;0.63;;
793;SDS011;380;48.738;9.214;2022-09-09T08:58:09;1.17;;;0.60;;
793;SDS011;380;48.738;9.214;2022-09-09T09:00:43;1.70;;;0.90;;
793;SDS011;380;48.738;9.214;2022-09-09T09:06:06;4.80;;;1.13;;
793;SDS011;380;48.738;9.214;2022-09-09T09:08:59;1.30;;;0.65;;
793;SDS011;380;48.738;9.214;2022-09-09T09:11:22;1.75;;;1.00;;
793;SDS011;380;48.738;9.214;2022-09-09T09:13:54;2.10;;;0.93;;
793;SDS011;380;48.738;9.214;2022-09-09T09:16:26;6.30;;;1.02;;
793;SDS011;380;48.738;9.214;2022-09-09T09:18:57;6.90;;;1.30;;
793;SDS011;380;48.738;9.214;2022-09-09T09:21:42;4.85;;;0.77;;
793;SDS011;380;48.738;9.214;2022-09-09T09:26:53;1.08;;;0.38;;
793;SDS011;380;48.738;9.214;2022-09-09T09:29:19;3.88;;;1.13;;
793;SDS011;380;48.738;9.214;2022-09-09T09:31:53;1.73;;;0.57;;
793;SDS011;380;48.738;9.214;2022-09-09T09:34:19;2.17;;;0.70;;
793;SDS011;380;48.738;9.214;2022-09-09T09:36:58;2.85;;;0.70;;
793;SDS011;380;48.738;9.214;2022-09-09T09:39:30;4.03;;;0.73;;
793;SDS011;380;48.738;9.214;2022-09-09T09:41:56;1.80;;;0.50;;
793;SDS011;380;48.738;9.214;2022-09-09T09:44:29;1.85;;;0.57;;
793;SDS011;380;48.738;9.214;2022-09-09T09:49:56;1.92;;;0.50;;
793;SDS011;380;48.738;9.214;2022-09-09T09:52:24;1.70;;;0.60;;
793;SDS011;380;48.738;9.214;2022-09-09T09:54:50;2.50;;;0.90;;
793;SDS011;380;48.738;9.214;2022-09-09T09:57:17;1.15;;;0.32;;
793;SDS011;380;48.738;9.214;2022-09-09T09:59:43;2.78;;;0.50;;
793;SDS011;380;48.738;9.214;2022-09-09T10:02:13;4.35;;;0.73;;
793;SDS011;380;48.738;9.214;2022-09-09T10:04:40;2.28;;;0.70;;
793;SDS011;380;48.738;9.214;2022-09-09T10:07:19;2.22;;;0.98;;
793;SDS011;380;48.738;9.214;2022-09-09T10:09:46;3.97;;;1.15;;
793;SDS011;380;48.738;9.214;2022-09-09T10:17:42;2.03;;;0.75;;
793;SDS011;380;48.738;9.214;2022-09-09T10:25:33;2.45;;;1.05;;
793;SDS011;380;48.738;9.214;2022-09-09T10:31:01;3.83;;;0.88;;
793;SDS011;380;48.738;9.214;2022-09-09T10:33:41;4.47;;;1.45;;
793;SDS011;380;48.738;9.214;2022-09-09T10:36:17;3.70;;;0.52;;
793;SDS011;380;48.738;9.214;2022-09-09T10:38:45;2.65;;;1.17;;
793;SDS011;380;48.738;9.214;2022-09-09T10:41:19;3.47;;;1.45;;
793;SDS011;380;48.738;9.214;2022-09-09T10:46:16;1.67;;;0.70;;
793;SDS011;380;48.738;9.214;2022-09-09T10:49:07;3.40;;;0.98;;
793;SDS011;380;48.738;9.214;2022-09-09T10:54:28;2.88;;;0.75;;
793;SDS011;380;48.738;9.214;2022-09-09T10:56:56;3.25;;;0.65;;
793;SDS011;380;48.738;9.214;2022-09-09T10:59:24;3.35;;;0.50;;
793;SDS011;380;48.738;9.214;2022-09-09T11:01:53;1.23;;;0.52;;
793;SDS011;380;48.738;9.214;2022-09-09T11:04:32;2.15;;;0.70;;
793;SDS011;380;48.738;9.214;2022-09-09T11:07:00;0.88;;;0.55;;
793;SDS011;380;48.738;9.214;2022-09-09T11:09:31;2.40;;;0.73;;
793;SDS011;380;48.738;9.214;2022-09-09T11:11:59;2.40;;;0.52;;
793;SDS011;380;48.738;9.214;2022-09-09T11:14:40;1.55;;;0.80;;
793;SDS011;380;48.738;9.214;2022-09-09T11:17:12;2.75;;;1.38;;
793;SDS011;380;48.738;9.214;2022-09-09T11:19:39;3.67;;;1.13;;
793;SDS011;380;48.738;9.214;2022-09-09T11:24:41;1.83;;;0.70;;
793;SDS011;380;48.738;9.214;2022-09-09T11:27:12;2.25;;;0.80;;
793;SDS011;380;48.738;9.214;2022-09-09T11:34:54;1.90;;;0.60;;
793;SDS011;380;48.738;9.214;2022-09-09T11:40:16;1.40;;;0.50;;
793;SDS011;380;48.738;9.214;2022-09-09T11:42:42;0.73;;;0.30;;
793;SDS011;380;48.738;9.214;2022-09-09T11:45:19;1.15;;;0.50;;
793;SDS011;380;48.738;9.214;2022-09-09T11:50:38;3.10;;;1.13;;
793;SDS011;380;48.738;9.214;2022-09-09T11:53:14;1.40;;;0.45;;
793;SDS011;380;48.738;9.214;2022-09-09T11:55:41;1.33;;;0.50;;
793;SDS011;380;48.738;9.214;2022-09-09T12:00:37;1.48;;;0.43;;
793;SDS011;380;48.738;9.214;2022-09-09T12:03:05;0.57;;;0.20;;
793;SDS011;380;48.738;9.214;2022-09-09T12:05:44;0.40;;;0.17;;
793;SDS011;380;48.738;9.214;2022-09-09T12:08:11;0.40;;;0.20;;
793;SDS011;380;48.738;9.214;2022-09-09T12:10:52;0.75;;;0.13;;
793;SDS011;380;48.738;9.214;2022-09-09T12:13:19;0.00;;;0.00;;
793;SDS011;380;48.738;9.214;2022-09-09T12:15:48;0.13;;;0.00;;
793;SDS011;380;48.738;9.214;2022-09-09T12:18:15;0.63;;;0.10;;
793;SDS011;380;48.738;9.214;2022-09-09T12:20:49;0.40;;;0.20;;
793;SDS011;380;48.738;9.214;2022-09-09T12:23:20;0.93;;;0.20;;
793;SDS011;380;48.738;9.214;2022-09-09T12:25:59;0.20;;;0.10;;
793;SDS011;380;48.738;9.214;2022-09-09T12:28:32;1.98;;;0.40;;
793;SDS011;380;48.738;9.214;2022-09-09T12:33:36;1.38;;;0.35;;
793;SDS011;380;48.738;9.214;2022-09-09T12:36:02;1.17;;;0.10;;
793;SDS011;380;48.738;9.214;2022-09-09T12:38:31;2.67;;;0.28;;
793;SDS011;380;48.738;9.214;2022-09-09T12:40:58;0.65;;;0.30;;
793;SDS011;380;48.738;9.214;2022-09-09T12:43:25;0.90;;;0.30;;
793;SDS011;380;48.738;9.214;2022-09-09T12:45:53;1.70;;;0.40;;
793;SDS011;380;48.738;9.214;2022-09-09T12:48:22;0.82;;;0.50;;
793;SDS011;380;48.738;9.214;2022-09-09T12:50:51;5.20;;;1.20;;
793;SDS011;380;48.738;9.214;2022-09-09T12:53:24;1.85;;;0.65;;
793;SDS011;380;48.738;9.214;2022-09-09T12:56:04;1.27;;;0.43;;
793;SDS011;380;48.738;9.214;2022-09-09T12:58:32;1.88;;;0.30;;
793;SDS011;380;48.738;9.214;2022-09-09T13:01:00;1.30;;;0.60;;
793;SDS011;380;48.738;9.214;2022-09-09T13:03:28;1.00;;;0.30;;
793;SDS011;380;48.738;9.214;2022-09-09T13:05:57;6.45;;;0.98;;
793;SDS011;380;48.738;9.214;2022-09-09T13:08:24;3.38;;;0.50;;
793;SDS011;380;48.738;9.214;2022-09-09T13:10:57;3.35;;;0.20;;
793;SDS011;380;48.738;9.214;2022-09-09T13:13:27;2.30;;;0.50;;
793;SDS011;380;48.738;9.214;2022-09-09T13:15:58;0.45;;;0.20;;
793;SDS011;380;48.738;9.214;2022-09-09T13:18:27;0.45;;;0.20;;
793;SDS011;380;48.738;9.214;2022-09-09T13:20:54;1.80;;;0.45;;
793;SDS011;380;48.738;9.214;2022-09-09T13:23:21;1.30;;;0.17;;
793;SDS011;380;48.738;9.214;2022-09-09T13:25:57;2.55;;;0.57;;
793;SDS011;380;48.738;9.214;2022-09-09T13:28:24;3.17;;;0.47;;
793;SDS011;380;48.738;9.214;2022-09-09T13:33:43;1.65;;;0.35;;
793;SDS011;380;48.738;9.214;2022-09-09T13:36:10;2.00;;;0.77;;
793;SDS011;380;48.738;9.214;2022-09-09T13:41:18;0.80;;;0.30;;
793;SDS011;380;48.738;9.214;2022-09-09T13:43:46;0.70;;;0.20;;
793;SDS011;380;48.738;9.214;2022-09-09T13:49:00;3.22;;;0.80;;
793;SDS011;380;48.738;9.214;2022-09-09T13:53:59;3.60;;;0.55;;
793;SDS011;380;48.738;9.214;2022-09-09T13:56:25;2.38;;;0.40;;
793;SDS011;380;48.738;9.214;2022-09-09T13:58:51;2.92;;;0.45;;
793;SDS011;380;48.738;9.214;2022-09-09T14:01:17;4.50;;;0.47;;
793;SDS011;380;48.738;9.214;2022-09-09T14:03:43;2.42;;;0.30;;
793;SDS011;380;48.738;9.214;2022-09-09T14:06:09;1.58;;;0.52;;
793;SDS011;380;48.738;9.214;2022-09-09T14:08:36;2.20;;;0.82;;
793;SDS011;380;48.738;9.214;2022-09-09T14:11:03;1.00;;;0.13;;
793;SDS011;380;48.738;9.214;2022-09-09T14:13:29;4.20;;;0.43;;
793;SDS011;380;48.738;9.214;2022-09-09T14:15:56;0.88;;;0.38;;
793;SDS011;380;48.738;9.214;2022-09-09T14:18:22;1.17;;;0.52;;
793;SDS011;380;48.738;9.214;2022-09-09T14:20:48;0.43;;;0.20;;
793;SDS011;380;48.738;9.214;2022-09-09T14:23:15;1.13;;;0.30;;
793;SDS011;380;48.738;9.214;2022-09-09T14:25:44;1.20;;;0.17;;
793;SDS011;380;48.738;9.214;2022-09-09T14:28:11;0.55;;;0.28;;
793;SDS011;380;48.738;9.214;2022-09-09T14:30:38;0.22;;;0.10;;
793;SDS011;380;48.738;9.214;2022-09-09T14:33:05;1.60;;;0.50;;
793;SDS011;380;48.738;9.214;2022-09-09T14:35:31;0.98;;;0.45;;
793;SDS011;380;48.738;9.214;2022-09-09T14:37:58;3.55;;;0.43;;
793;SDS011;380;48.738;9.214;2022-09-09T14:40:25;1.60;;;0.40;;
793;SDS011;380;48.738;9.214;2022-09-09T14:42:52;1.25;;;0.35;;
793;SDS011;380;48.738;9.214;2022-09-09T14:45:18;3.30;;;0.30;;
793;SDS011;380;48.738;9.214;2022-09-09T14:47:46;2.13;;;0.38;;
793;SDS011;380;48.738;9.214;2022-09-09T14:50:12;3.75;;;0.43;;
793;SDS011;380;48.738;9.214;2022-09-09T14:52:38;1.23;;;0.20;;
793;SDS011;380;48.738;9.214;2022-09-09T14:55:04;3.60;;;0.25;;
793;SDS011;380;48.738;9.214;2022-09-09T14:57:31;1.27;;;0.63;;
793;SDS011;380;48.738;9.214;2022-09-09T14:59:57;0.35;;;0.20;;
793;SDS011;380;48.738;9.214;2022-09-09T15:02:23;1.35;;;0.25;;
793;SDS011;380;48.738;9.214;2022-09-09T15:04:48;1.10;;;0.25;;
793;SDS011;380;48.738;9.214;2022-09-09T15:07:15;1.75;;;0.50;;
793;SDS011;380;48.738;9.214;2022-09-09T15:09:41;1.20;;;0.28;;
793;SDS011;380;48.738;9.214;2022-09-09T15:12:07;1.90;;;0.52;;
793;SDS011;380;48.738;9.214;2022-09-09T15:14:34;0.57;;;0.20;;
793;SDS011;380;48.738;9.214;2022-09-09T15:17:00;0.70;;;0.28;;
793;SDS011;380;48.738;9.214;2022-09-09T15:19:26;0.82;;;0.30;;
793;SDS011;380;48.738;9.214;2022-09-09T15:21:52;3.60;;;0.63;;
793;SDS011;380;48.738;9.214;2022-09-09T15:24:19;1.02;;;0.30;;
793;SDS011;380;48.738;9.214;2022-09-09T15:26:45;2.50;;;0.95;;
793;SDS011;380;48.738;9.214;2022-09-09T15:29:11;1.50;;;0.15;;
793;SDS011;380;48.738;9.214;2022-09-09T15:31:37;3.58;;;0.65;;
793;SDS011;380;48.738;9.214;2022-09-09T15:34:04;2.33;;;0.68;;
793;SDS011;380;48.738;9.214;2022-09-09T15:36:34;1.02;;;0.52;;
793;SDS011;380;48.738;9.214;2022-09-09T15:39:00;1.00;;;0.40;;
793;SDS011;380;48.738;9.214;2022-09-09T15:41:27;1.52;;;0.63;;
793;SDS011;380;48.738;9.214;2022-09-09T15:43:54;0.32;;;0.10;;
793;SDS011;380;48.738;9.214;2022-09-09T15:46:40;2.78;;;0.55;;
793;SDS011;380;48.738;9.214;2022-09-09T15:49:10;1.90;;;0.73;;
793;SDS011;380;48.738;9.214;2022-09-09T15:51:43;0.30;;;0.10;;
793;SDS011;380;48.738;9.214;2022-09-09T15:54:10;1.30;;;0.80;;
793;SDS011;380;48.738;9.214;2022-09-09T15:56:37;1.27;;;0.57;;
793;SDS011;380;48.738;9.214;2022-09-09T15:59:03;1.25;;;0.38;;
793;SDS011;380;48.738;9.214;2022-09-09T16:01:29;1.67;;;0.43;;
793;SDS011;380;48.738;9.214;2022-09-09T16:03:56;1.63;;;0.68;;
793;SDS011;380;48.738;9.214;2022-09-09T16:06:22;0.55;;;0.30;;
793;SDS011;380;48.738;9.214;2022-09-09T16:08:50;2.08;;;0.30;;
793;SDS011;380;48.738;9.214;2022-09-09T16:11:17;3.05;;;0.40;;
793;SDS011;380;48.738;9.214;2022-09-09T16:13:45;1.55;;;0.17;;
793;SDS011;380;48.738;9.214;2022-09-09T16:16:11;1.63;;;0.47;;
793;SDS011;380;48.738;9.214;2022-09-09T16:18:42;1.17;;;0.50;;
793;SDS011;380;48.738;9.214;2022-09-09T16:23:35;0.28;;;0.13;;
793;SDS011;380;48.738;9.214;2022-09-09T16:26:02;0.88;;;0.32;;
793;SDS011;380;48.738;9.214;2022-09-09T16:28:28;0.30;;;0.10;;
793;SDS011;380;48.738;9.214;2022-09-09T16:30:54;0.70;;;0.20;;
793;SDS011;380;48.738;9.214;2022-09-09T16:33:20;2.95;;;0.63;;
793;SDS011;380;48.738;9.214;2022-09-09T16:35:47;0.90;;;0.50;;
793;SDS011;380;48.738;9.214;2022-09-09T16:38:14;1.30;;;0.30;;
793;SDS011;380;48.738;9.214;2022-09-09T16:40:40;0.80;;;0.38;;
793;SDS011;380;48.738;9.214;2022-09-09T16:43:06;2.20;;;0.43;;
793;SDS011;380;48.738;9.214;2022-09-09T16:45:32;2.53;;;0.60;;
793;SDS011;380;48.738;9.214;2022-09-09T16:47:59;1.15;;;0.28;;
793;SDS011;380;48.738;9.214;2022-09-09T16:50:28;1.30;;;0.43;;
793;SDS011;380;48.738;9.214;2022-09-09T16:52:56;0.90;;;0.38;;
793;SDS011;380;48.738;9.214;2022-09-09T16:55:22;2.65;;;0.22;;
793;SDS011;380;48.738;9.214;2022-09-09T16:57:49;1.92;;;0.40;;
793;SDS011;380;48.738;9.214;2022-09-09T17:00:15;3.00;;;0.40;;
793;SDS011;380;48.738;9.214;2022-09-09T17:02:42;0.45;;;0.15;;
793;SDS011;380;48.738;9.214;2022-09-09T17:05:08;0.45;;;0.13;;
793;SDS011;380;48.738;9.214;2022-09-09T17:07:34;1.85;;;0.57;;
793;SDS011;380;48.738;9.214;2022-09-09T17:10:01;0.73;;;0.43;;
793;SDS011;380;48.738;9.214;2022-09-09T17:12:27;0.32;;;0.10;;
793;SDS011;380;48.738;9.214;2022-09-09T17:14:53;0.45;;;0.10;;
793;SDS011;380;48.738;9.214;2022-09-09T17:17:20;0.68;;;0.30;;
793;SDS011;380;48.738;9.214;2022-09-09T17:19:46;0.57;;;0.13;;
793;SDS011;380;48.738;9.214;2022-09-09T17:22:12;1.13;;;0.32;;
793;SDS011;380;48.738;9.214;2022-09-09T17:24:39;0.38;;;0.13;;
793;SDS011;380;48.738;9.214;2022-09-09T17:27:05;0.70;;;0.30;;
793;SDS011;380;48.738;9.214;2022-09-09T17:29:31;2.78;;;0.43;;
793;SDS011;380;48.738;9.214;2022-09-09T17:31:57;0.65;;;0.22;;
793;SDS011;380;48.738;9.214;2022-09-09T17:34:23;1.17;;;0.50;;
793;SDS011;380;48.738;9.214;2022-09-09T17:36:50;1.00;;;0.17;;
793;SDS011;380;48.738;9.214;2022-09-09T17:39:16;0.98;;;0.40;;